< < Back
Terminal Aerodrome Forecast


Current Version              Previous Versions:   1  2  3  4  5  6  7  8  9  

Terminal Aerodrome Forecast

154
FTUS42 KGSP 190533
TAFAVL
TAF
KAVL 190533Z 1906/2006 17004KT P6SM OVC015
     FM190800 17004KT 4SM BR OVC008
     FM191000 16004KT 4SM SHRA BR OVC008
     FM191400 17008KT 2SM SHRA BR OVC015
     FM191600 17010KT 2SM SHRA BR OVC015 PROB30 1916/1922 2SM TSRA
      OVC015CB
     FM192200 18009KT 5SM SHRA BKN008
     FM200100 18008KT P6SM BKN008=

Latest METAR

884
SAUS70 KWBC 191500 RRE
MTRAVL
METAR KAVL 191454Z 14008KT 110V170 10SM -RA SCT013 BKN019 OVC024 17/15
A2989 RMK AO2 SLP105 P0003 60012 T01720150 58017 $


USA.gov is the U.S. government's official web portal to all federal, state and local government web resources and services.